sensor_id;sensor_type;location;lat;lon;timestamp;P1;durP1;ratioP1;P2;durP2;ratioP2
8803;SDS011;4438;50.890;4.726;2023-11-21T00:00:37;32.57;;;24.10;;
8803;SDS011;4438;50.890;4.726;2023-11-21T00:03:03;31.27;;;24.20;;
8803;SDS011;4438;50.890;4.726;2023-11-21T00:05:29;32.87;;;23.93;;
8803;SDS011;4438;50.890;4.726;2023-11-21T00:07:55;30.30;;;23.97;;
8803;SDS011;4438;50.890;4.726;2023-11-21T00:10:21;30.00;;;24.00;;
8803;SDS011;4438;50.890;4.726;2023-11-21T00:12:47;29.60;;;22.87;;
8803;SDS011;4438;50.890;4.726;2023-11-21T00:15:13;31.70;;;24.33;;
8803;SDS011;4438;50.890;4.726;2023-11-21T00:17:40;32.33;;;25.27;;
8803;SDS011;4438;50.890;4.726;2023-11-21T00:20:07;31.27;;;23.70;;
8803;SDS011;4438;50.890;4.726;2023-11-21T00:22:34;33.20;;;25.27;;
8803;SDS011;4438;50.890;4.726;2023-11-21T00:25:00;32.03;;;24.60;;
8803;SDS011;4438;50.890;4.726;2023-11-21T00:27:28;32.17;;;24.57;;
8803;SDS011;4438;50.890;4.726;2023-11-21T00:29:54;30.30;;;23.37;;
8803;SDS011;4438;50.890;4.726;2023-11-21T00:32:20;29.43;;;23.30;;
8803;SDS011;4438;50.890;4.726;2023-11-21T00:34:46;32.63;;;24.60;;
8803;SDS011;4438;50.890;4.726;2023-11-21T00:37:13;28.77;;;22.90;;
8803;SDS011;4438;50.890;4.726;2023-11-21T00:39:40;30.00;;;24.13;;
8803;SDS011;4438;50.890;4.726;2023-11-21T00:42:06;29.43;;;22.87;;
8803;SDS011;4438;50.890;4.726;2023-11-21T00:44:33;31.20;;;22.83;;
8803;SDS011;4438;50.890;4.726;2023-11-21T00:46:59;31.70;;;24.30;;
8803;SDS011;4438;50.890;4.726;2023-11-21T00:49:26;37.80;;;26.63;;
8803;SDS011;4438;50.890;4.726;2023-11-21T00:51:53;32.07;;;24.87;;
8803;SDS011;4438;50.890;4.726;2023-11-21T00:54:19;31.20;;;23.90;;
8803;SDS011;4438;50.890;4.726;2023-11-21T00:56:45;32.43;;;23.30;;
8803;SDS011;4438;50.890;4.726;2023-11-21T00:59:13;28.67;;;23.27;;
8803;SDS011;4438;50.890;4.726;2023-11-21T01:01:39;32.83;;;24.67;;
8803;SDS011;4438;50.890;4.726;2023-11-21T01:04:05;31.20;;;23.53;;
8803;SDS011;4438;50.890;4.726;2023-11-21T01:06:32;29.53;;;22.37;;
8803;SDS011;4438;50.890;4.726;2023-11-21T01:08:58;27.07;;;20.80;;
8803;SDS011;4438;50.890;4.726;2023-11-21T01:11:24;29.03;;;21.30;;
8803;SDS011;4438;50.890;4.726;2023-11-21T01:13:51;24.43;;;20.27;;
8803;SDS011;4438;50.890;4.726;2023-11-21T01:16:18;27.43;;;21.23;;
8803;SDS011;4438;50.890;4.726;2023-11-21T01:18:44;28.70;;;20.60;;
8803;SDS011;4438;50.890;4.726;2023-11-21T01:21:10;25.40;;;20.30;;
8803;SDS011;4438;50.890;4.726;2023-11-21T01:23:37;26.33;;;20.03;;
8803;SDS011;4438;50.890;4.726;2023-11-21T01:26:03;22.27;;;19.27;;
8803;SDS011;4438;50.890;4.726;2023-11-21T01:28:29;25.97;;;20.40;;
8803;SDS011;4438;50.890;4.726;2023-11-21T01:30:55;22.97;;;18.80;;
8803;SDS011;4438;50.890;4.726;2023-11-21T01:33:22;22.20;;;18.60;;
8803;SDS011;4438;50.890;4.726;2023-11-21T01:35:50;24.87;;;19.40;;
8803;SDS011;4438;50.890;4.726;2023-11-21T01:38:18;27.10;;;20.47;;
8803;SDS011;4438;50.890;4.726;2023-11-21T01:40:44;26.87;;;20.47;;
8803;SDS011;4438;50.890;4.726;2023-11-21T01:43:10;29.87;;;21.77;;
8803;SDS011;4438;50.890;4.726;2023-11-21T01:45:36;30.53;;;22.50;;
8803;SDS011;4438;50.890;4.726;2023-11-21T01:48:04;27.50;;;21.33;;
8803;SDS011;4438;50.890;4.726;2023-11-21T01:50:32;28.60;;;21.93;;
8803;SDS011;4438;50.890;4.726;2023-11-21T01:52:58;26.87;;;18.90;;
8803;SDS011;4438;50.890;4.726;2023-11-21T01:55:26;26.17;;;19.47;;
8803;SDS011;4438;50.890;4.726;2023-11-21T01:57:55;24.77;;;19.70;;
8803;SDS011;4438;50.890;4.726;2023-11-21T02:00:22;25.87;;;19.60;;
8803;SDS011;4438;50.890;4.726;2023-11-21T02:02:48;29.30;;;22.30;;
8803;SDS011;4438;50.890;4.726;2023-11-21T02:05:17;31.83;;;21.97;;
8803;SDS011;4438;50.890;4.726;2023-11-21T02:07:44;31.67;;;22.53;;
8803;SDS011;4438;50.890;4.726;2023-11-21T02:10:10;31.53;;;23.00;;
8803;SDS011;4438;50.890;4.726;2023-11-21T02:12:40;33.03;;;22.93;;
8803;SDS011;4438;50.890;4.726;2023-11-21T02:15:07;31.57;;;22.00;;
8803;SDS011;4438;50.890;4.726;2023-11-21T02:17:41;29.87;;;22.13;;
8803;SDS011;4438;50.890;4.726;2023-11-21T02:20:09;27.97;;;20.97;;
8803;SDS011;4438;50.890;4.726;2023-11-21T02:22:40;29.87;;;22.00;;
8803;SDS011;4438;50.890;4.726;2023-11-21T02:25:07;29.13;;;21.50;;
8803;SDS011;4438;50.890;4.726;2023-11-21T02:27:33;25.87;;;20.30;;
8803;SDS011;4438;50.890;4.726;2023-11-21T02:29:59;30.73;;;21.63;;
8803;SDS011;4438;50.890;4.726;2023-11-21T02:32:26;29.37;;;21.57;;
8803;SDS011;4438;50.890;4.726;2023-11-21T02:34:52;30.77;;;20.83;;
8803;SDS011;4438;50.890;4.726;2023-11-21T02:37:21;29.17;;;20.87;;
8803;SDS011;4438;50.890;4.726;2023-11-21T02:39:48;30.00;;;22.20;;
8803;SDS011;4438;50.890;4.726;2023-11-21T02:42:14;32.63;;;22.43;;
8803;SDS011;4438;50.890;4.726;2023-11-21T02:44:40;27.50;;;21.20;;
8803;SDS011;4438;50.890;4.726;2023-11-21T02:47:06;29.57;;;21.70;;
8803;SDS011;4438;50.890;4.726;2023-11-21T02:49:32;32.30;;;23.20;;
8803;SDS011;4438;50.890;4.726;2023-11-21T02:51:59;30.23;;;21.17;;
8803;SDS011;4438;50.890;4.726;2023-11-21T02:54:26;32.63;;;21.70;;
8803;SDS011;4438;50.890;4.726;2023-11-21T02:56:52;35.40;;;23.33;;
8803;SDS011;4438;50.890;4.726;2023-11-21T02:59:18;32.40;;;21.17;;
8803;SDS011;4438;50.890;4.726;2023-11-21T03:01:45;33.17;;;21.37;;
8803;SDS011;4438;50.890;4.726;2023-11-21T03:04:11;28.77;;;20.63;;
8803;SDS011;4438;50.890;4.726;2023-11-21T03:06:42;30.53;;;21.70;;
8803;SDS011;4438;50.890;4.726;2023-11-21T03:09:09;28.43;;;20.53;;
8803;SDS011;4438;50.890;4.726;2023-11-21T03:11:37;29.30;;;21.93;;
8803;SDS011;4438;50.890;4.726;2023-11-21T03:14:03;30.77;;;21.87;;
8803;SDS011;4438;50.890;4.726;2023-11-21T03:16:30;30.60;;;20.67;;
8803;SDS011;4438;50.890;4.726;2023-11-21T03:18:56;31.70;;;21.93;;
8803;SDS011;4438;50.890;4.726;2023-11-21T03:21:22;27.90;;;20.77;;
8803;SDS011;4438;50.890;4.726;2023-11-21T03:23:48;30.43;;;20.97;;
8803;SDS011;4438;50.890;4.726;2023-11-21T03:26:14;28.63;;;20.27;;
8803;SDS011;4438;50.890;4.726;2023-11-21T03:28:41;25.40;;;19.43;;
8803;SDS011;4438;50.890;4.726;2023-11-21T03:31:07;26.33;;;20.37;;
8803;SDS011;4438;50.890;4.726;2023-11-21T03:33:36;27.20;;;19.90;;
8803;SDS011;4438;50.890;4.726;2023-11-21T03:36:02;25.93;;;18.47;;
8803;SDS011;4438;50.890;4.726;2023-11-21T03:38:29;24.57;;;17.97;;
8803;SDS011;4438;50.890;4.726;2023-11-21T03:40:55;23.17;;;17.80;;
8803;SDS011;4438;50.890;4.726;2023-11-21T03:43:21;24.23;;;18.37;;
8803;SDS011;4438;50.890;4.726;2023-11-21T03:45:47;24.77;;;18.50;;
8803;SDS011;4438;50.890;4.726;2023-11-21T03:48:13;24.63;;;18.50;;
8803;SDS011;4438;50.890;4.726;2023-11-21T03:50:39;23.97;;;18.00;;
8803;SDS011;4438;50.890;4.726;2023-11-21T03:53:05;25.80;;;17.87;;
8803;SDS011;4438;50.890;4.726;2023-11-21T03:55:31;23.77;;;16.87;;
8803;SDS011;4438;50.890;4.726;2023-11-21T03:57:58;24.03;;;17.57;;
8803;SDS011;4438;50.890;4.726;2023-11-21T04:00:24;23.03;;;17.30;;
8803;SDS011;4438;50.890;4.726;2023-11-21T04:02:52;22.20;;;16.27;;
8803;SDS011;4438;50.890;4.726;2023-11-21T04:05:19;23.87;;;17.60;;
8803;SDS011;4438;50.890;4.726;2023-11-21T04:07:45;21.40;;;16.27;;
8803;SDS011;4438;50.890;4.726;2023-11-21T04:10:11;22.57;;;17.47;;
8803;SDS011;4438;50.890;4.726;2023-11-21T04:12:38;23.70;;;16.70;;
8803;SDS011;4438;50.890;4.726;2023-11-21T04:15:04;20.37;;;15.47;;
8803;SDS011;4438;50.890;4.726;2023-11-21T04:17:30;22.57;;;16.47;;
8803;SDS011;4438;50.890;4.726;2023-11-21T04:19:56;20.53;;;15.90;;
8803;SDS011;4438;50.890;4.726;2023-11-21T04:22:23;29.80;;;20.87;;
8803;SDS011;4438;50.890;4.726;2023-11-21T04:24:49;22.77;;;17.00;;
8803;SDS011;4438;50.890;4.726;2023-11-21T04:27:18;21.37;;;16.70;;
8803;SDS011;4438;50.890;4.726;2023-11-21T04:29:44;19.27;;;15.53;;
8803;SDS011;4438;50.890;4.726;2023-11-21T04:32:10;20.93;;;16.27;;
8803;SDS011;4438;50.890;4.726;2023-11-21T04:34:37;21.73;;;16.67;;
8803;SDS011;4438;50.890;4.726;2023-11-21T04:37:03;20.83;;;15.80;;
8803;SDS011;4438;50.890;4.726;2023-11-21T04:39:31;23.77;;;17.40;;
8803;SDS011;4438;50.890;4.726;2023-11-21T04:41:57;20.43;;;16.63;;
8803;SDS011;4438;50.890;4.726;2023-11-21T04:44:23;23.53;;;18.03;;
8803;SDS011;4438;50.890;4.726;2023-11-21T04:46:49;22.83;;;17.30;;
8803;SDS011;4438;50.890;4.726;2023-11-21T04:49:15;23.77;;;17.33;;
8803;SDS011;4438;50.890;4.726;2023-11-21T04:51:41;21.80;;;16.60;;
8803;SDS011;4438;50.890;4.726;2023-11-21T04:54:07;20.73;;;16.20;;
8803;SDS011;4438;50.890;4.726;2023-11-21T04:56:34;24.47;;;17.40;;
8803;SDS011;4438;50.890;4.726;2023-11-21T04:59:00;24.13;;;17.97;;
8803;SDS011;4438;50.890;4.726;2023-11-21T05:01:26;22.70;;;17.23;;
8803;SDS011;4438;50.890;4.726;2023-11-21T05:03:52;22.40;;;17.03;;
8803;SDS011;4438;50.890;4.726;2023-11-21T05:06:18;22.07;;;16.57;;
8803;SDS011;4438;50.890;4.726;2023-11-21T05:08:45;25.60;;;17.97;;
8803;SDS011;4438;50.890;4.726;2023-11-21T05:11:11;22.93;;;17.43;;
8803;SDS011;4438;50.890;4.726;2023-11-21T05:13:37;24.20;;;17.70;;
8803;SDS011;4438;50.890;4.726;2023-11-21T05:16:04;22.50;;;16.43;;
8803;SDS011;4438;50.890;4.726;2023-11-21T05:18:31;21.47;;;16.50;;
8803;SDS011;4438;50.890;4.726;2023-11-21T05:20:57;18.93;;;14.43;;
8803;SDS011;4438;50.890;4.726;2023-11-21T05:23:23;19.73;;;15.00;;
8803;SDS011;4438;50.890;4.726;2023-11-21T05:25:49;21.20;;;15.93;;
8803;SDS011;4438;50.890;4.726;2023-11-21T05:28:16;19.73;;;15.43;;
8803;SDS011;4438;50.890;4.726;2023-11-21T05:30:42;22.13;;;16.23;;
8803;SDS011;4438;50.890;4.726;2023-11-21T05:33:09;23.97;;;17.20;;
8803;SDS011;4438;50.890;4.726;2023-11-21T05:35:35;24.63;;;17.67;;
8803;SDS011;4438;50.890;4.726;2023-11-21T05:38:01;22.57;;;17.43;;
8803;SDS011;4438;50.890;4.726;2023-11-21T05:40:27;23.53;;;16.67;;
8803;SDS011;4438;50.890;4.726;2023-11-21T05:42:55;23.17;;;17.03;;
8803;SDS011;4438;50.890;4.726;2023-11-21T05:45:21;21.07;;;16.03;;
8803;SDS011;4438;50.890;4.726;2023-11-21T05:47:47;21.93;;;16.27;;
8803;SDS011;4438;50.890;4.726;2023-11-21T05:50:14;23.90;;;17.57;;
8803;SDS011;4438;50.890;4.726;2023-11-21T05:52:40;21.10;;;17.00;;
8803;SDS011;4438;50.890;4.726;2023-11-21T05:55:07;22.07;;;16.47;;
8803;SDS011;4438;50.890;4.726;2023-11-21T05:57:34;20.93;;;17.03;;
8803;SDS011;4438;50.890;4.726;2023-11-21T06:00:07;20.87;;;16.23;;
8803;SDS011;4438;50.890;4.726;2023-11-21T06:02:40;21.43;;;16.03;;
8803;SDS011;4438;50.890;4.726;2023-11-21T06:05:06;24.07;;;17.33;;
8803;SDS011;4438;50.890;4.726;2023-11-21T06:07:32;26.83;;;17.80;;
8803;SDS011;4438;50.890;4.726;2023-11-21T06:09:59;24.77;;;17.00;;
8803;SDS011;4438;50.890;4.726;2023-11-21T06:12:26;23.03;;;17.60;;
8803;SDS011;4438;50.890;4.726;2023-11-21T06:14:52;22.93;;;16.63;;
8803;SDS011;4438;50.890;4.726;2023-11-21T06:17:18;22.50;;;18.03;;
8803;SDS011;4438;50.890;4.726;2023-11-21T06:19:44;21.27;;;17.00;;
8803;SDS011;4438;50.890;4.726;2023-11-21T06:22:11;20.47;;;16.37;;
8803;SDS011;4438;50.890;4.726;2023-11-21T06:24:37;24.23;;;17.07;;
8803;SDS011;4438;50.890;4.726;2023-11-21T06:27:04;20.83;;;16.37;;
8803;SDS011;4438;50.890;4.726;2023-11-21T06:29:30;23.10;;;17.23;;
8803;SDS011;4438;50.890;4.726;2023-11-21T06:31:57;21.87;;;17.57;;
8803;SDS011;4438;50.890;4.726;2023-11-21T06:34:23;22.80;;;17.63;;
8803;SDS011;4438;50.890;4.726;2023-11-21T06:36:49;22.43;;;17.23;;
8803;SDS011;4438;50.890;4.726;2023-11-21T06:39:16;24.60;;;17.73;;
8803;SDS011;4438;50.890;4.726;2023-11-21T06:41:42;22.60;;;16.80;;
8803;SDS011;4438;50.890;4.726;2023-11-21T06:44:08;30.43;;;21.07;;
8803;SDS011;4438;50.890;4.726;2023-11-21T06:46:34;32.20;;;21.73;;
8803;SDS011;4438;50.890;4.726;2023-11-21T06:49:01;30.30;;;21.13;;
8803;SDS011;4438;50.890;4.726;2023-11-21T06:51:27;25.77;;;18.03;;
8803;SDS011;4438;50.890;4.726;2023-11-21T06:53:53;21.27;;;17.03;;
8803;SDS011;4438;50.890;4.726;2023-11-21T06:56:19;22.80;;;17.03;;
8803;SDS011;4438;50.890;4.726;2023-11-21T06:58:45;22.83;;;16.70;;
8803;SDS011;4438;50.890;4.726;2023-11-21T07:01:12;24.33;;;17.40;;
8803;SDS011;4438;50.890;4.726;2023-11-21T07:03:38;25.43;;;17.70;;
8803;SDS011;4438;50.890;4.726;2023-11-21T07:06:06;22.07;;;16.83;;
8803;SDS011;4438;50.890;4.726;2023-11-21T07:08:32;22.83;;;16.87;;
8803;SDS011;4438;50.890;4.726;2023-11-21T07:10:58;24.90;;;17.40;;
8803;SDS011;4438;50.890;4.726;2023-11-21T07:13:24;22.97;;;17.00;;
8803;SDS011;4438;50.890;4.726;2023-11-21T07:15:51;22.63;;;17.07;;
8803;SDS011;4438;50.890;4.726;2023-11-21T07:18:17;22.97;;;17.13;;
8803;SDS011;4438;50.890;4.726;2023-11-21T07:20:43;21.20;;;16.53;;
8803;SDS011;4438;50.890;4.726;2023-11-21T07:23:09;23.40;;;16.73;;
8803;SDS011;4438;50.890;4.726;2023-11-21T07:25:35;23.70;;;17.23;;
8803;SDS011;4438;50.890;4.726;2023-11-21T07:28:01;19.80;;;16.00;;
8803;SDS011;4438;50.890;4.726;2023-11-21T07:30:28;22.20;;;16.90;;
8803;SDS011;4438;50.890;4.726;2023-11-21T07:32:54;18.30;;;14.70;;
8803;SDS011;4438;50.890;4.726;2023-11-21T07:35:20;23.13;;;16.97;;
8803;SDS011;4438;50.890;4.726;2023-11-21T07:37:46;21.87;;;16.73;;
8803;SDS011;4438;50.890;4.726;2023-11-21T07:40:14;22.53;;;15.57;;
8803;SDS011;4438;50.890;4.726;2023-11-21T07:42:41;23.73;;;16.40;;
8803;SDS011;4438;50.890;4.726;2023-11-21T07:45:08;21.70;;;16.53;;
8803;SDS011;4438;50.890;4.726;2023-11-21T07:47:34;21.37;;;16.03;;
8803;SDS011;4438;50.890;4.726;2023-11-21T07:50:01;22.90;;;17.10;;
8803;SDS011;4438;50.890;4.726;2023-11-21T07:52:28;20.30;;;16.50;;
8803;SDS011;4438;50.890;4.726;2023-11-21T07:54:54;22.87;;;16.83;;
8803;SDS011;4438;50.890;4.726;2023-11-21T07:57:21;22.93;;;16.67;;
8803;SDS011;4438;50.890;4.726;2023-11-21T07:59:47;21.27;;;16.83;;
8803;SDS011;4438;50.890;4.726;2023-11-21T08:02:13;21.93;;;16.20;;
8803;SDS011;4438;50.890;4.726;2023-11-21T08:04:41;23.60;;;17.53;;
8803;SDS011;4438;50.890;4.726;2023-11-21T08:07:08;22.57;;;16.80;;
8803;SDS011;4438;50.890;4.726;2023-11-21T08:09:34;23.70;;;17.67;;
8803;SDS011;4438;50.890;4.726;2023-11-21T08:12:00;23.07;;;16.63;;
8803;SDS011;4438;50.890;4.726;2023-11-21T08:14:27;24.27;;;17.33;;
8803;SDS011;4438;50.890;4.726;2023-11-21T08:16:53;21.70;;;16.90;;
8803;SDS011;4438;50.890;4.726;2023-11-21T08:19:23;23.70;;;18.77;;
8803;SDS011;4438;50.890;4.726;2023-11-21T08:21:50;24.50;;;17.93;;
8803;SDS011;4438;50.890;4.726;2023-11-21T08:24:16;24.90;;;17.97;;
8803;SDS011;4438;50.890;4.726;2023-11-21T08:26:42;19.93;;;16.40;;
8803;SDS011;4438;50.890;4.726;2023-11-21T08:29:08;23.73;;;16.97;;
8803;SDS011;4438;50.890;4.726;2023-11-21T08:31:34;24.20;;;18.23;;
8803;SDS011;4438;50.890;4.726;2023-11-21T08:34:01;22.57;;;17.63;;
8803;SDS011;4438;50.890;4.726;2023-11-21T08:36:28;23.60;;;17.13;;
8803;SDS011;4438;50.890;4.726;2023-11-21T08:38:54;24.47;;;17.40;;
8803;SDS011;4438;50.890;4.726;2023-11-21T08:41:20;25.83;;;18.87;;
8803;SDS011;4438;50.890;4.726;2023-11-21T08:43:49;24.93;;;20.13;;
8803;SDS011;4438;50.890;4.726;2023-11-21T08:46:16;23.00;;;18.87;;
8803;SDS011;4438;50.890;4.726;2023-11-21T08:48:43;27.33;;;19.50;;
8803;SDS011;4438;50.890;4.726;2023-11-21T08:51:10;28.47;;;20.70;;
8803;SDS011;4438;50.890;4.726;2023-11-21T08:53:37;32.37;;;21.00;;
8803;SDS011;4438;50.890;4.726;2023-11-21T08:56:03;27.73;;;20.53;;
8803;SDS011;4438;50.890;4.726;2023-11-21T08:58:30;25.80;;;18.97;;
8803;SDS011;4438;50.890;4.726;2023-11-21T09:00:57;29.13;;;20.77;;
8803;SDS011;4438;50.890;4.726;2023-11-21T09:03:23;26.53;;;20.53;;
8803;SDS011;4438;50.890;4.726;2023-11-21T09:05:50;25.67;;;19.20;;
8803;SDS011;4438;50.890;4.726;2023-11-21T09:08:16;34.23;;;23.80;;
8803;SDS011;4438;50.890;4.726;2023-11-21T09:10:42;29.23;;;21.47;;
8803;SDS011;4438;50.890;4.726;2023-11-21T09:13:12;29.53;;;21.90;;
8803;SDS011;4438;50.890;4.726;2023-11-21T09:15:38;29.73;;;22.57;;
8803;SDS011;4438;50.890;4.726;2023-11-21T09:18:05;32.83;;;22.63;;
8803;SDS011;4438;50.890;4.726;2023-11-21T09:20:31;31.77;;;22.07;;
8803;SDS011;4438;50.890;4.726;2023-11-21T09:22:57;30.13;;;22.40;;
8803;SDS011;4438;50.890;4.726;2023-11-21T09:25:23;32.13;;;23.10;;
8803;SDS011;4438;50.890;4.726;2023-11-21T09:27:50;31.63;;;22.60;;
8803;SDS011;4438;50.890;4.726;2023-11-21T09:30:16;33.47;;;23.40;;
8803;SDS011;4438;50.890;4.726;2023-11-21T09:32:42;34.63;;;24.50;;
8803;SDS011;4438;50.890;4.726;2023-11-21T09:35:10;36.60;;;24.97;;
8803;SDS011;4438;50.890;4.726;2023-11-21T09:37:38;31.80;;;23.37;;
8803;SDS011;4438;50.890;4.726;2023-11-21T09:40:05;31.47;;;22.87;;
8803;SDS011;4438;50.890;4.726;2023-11-21T09:42:43;31.67;;;24.17;;
8803;SDS011;4438;50.890;4.726;2023-11-21T09:45:28;34.73;;;23.60;;
8803;SDS011;4438;50.890;4.726;2023-11-21T09:47:56;35.67;;;25.00;;
8803;SDS011;4438;50.890;4.726;2023-11-21T09:50:22;32.23;;;23.33;;
8803;SDS011;4438;50.890;4.726;2023-11-21T09:52:57;27.80;;;21.93;;
8803;SDS011;4438;50.890;4.726;2023-11-21T09:55:26;29.13;;;22.57;;
8803;SDS011;4438;50.890;4.726;2023-11-21T09:57:55;27.67;;;22.23;;
8803;SDS011;4438;50.890;4.726;2023-11-21T10:00:22;30.93;;;21.97;;
8803;SDS011;4438;50.890;4.726;2023-11-21T10:02:52;28.10;;;22.07;;
8803;SDS011;4438;50.890;4.726;2023-11-21T10:05:18;27.93;;;21.20;;
8803;SDS011;4438;50.890;4.726;2023-11-21T10:07:47;26.47;;;21.07;;
8803;SDS011;4438;50.890;4.726;2023-11-21T10:10:14;27.77;;;19.80;;
8803;SDS011;4438;50.890;4.726;2023-11-21T10:12:42;26.93;;;20.63;;
8803;SDS011;4438;50.890;4.726;2023-11-21T10:15:09;27.27;;;20.17;;
8803;SDS011;4438;50.890;4.726;2023-11-21T10:17:37;30.00;;;21.27;;
8803;SDS011;4438;50.890;4.726;2023-11-21T10:20:08;25.13;;;20.23;;
8803;SDS011;4438;50.890;4.726;2023-11-21T10:22:40;29.27;;;20.73;;
8803;SDS011;4438;50.890;4.726;2023-11-21T10:25:07;28.53;;;20.23;;
8803;SDS011;4438;50.890;4.726;2023-11-21T10:27:34;29.17;;;21.30;;
8803;SDS011;4438;50.890;4.726;2023-11-21T10:30:03;32.30;;;21.77;;
8803;SDS011;4438;50.890;4.726;2023-11-21T10:32:29;31.90;;;21.60;;
8803;SDS011;4438;50.890;4.726;2023-11-21T10:34:58;29.80;;;20.83;;
8803;SDS011;4438;50.890;4.726;2023-11-21T10:37:32;34.87;;;23.97;;
8803;SDS011;4438;50.890;4.726;2023-11-21T10:39:58;36.33;;;24.60;;
8803;SDS011;4438;50.890;4.726;2023-11-21T10:42:24;32.53;;;22.60;;
8803;SDS011;4438;50.890;4.726;2023-11-21T10:44:52;36.27;;;23.17;;
8803;SDS011;4438;50.890;4.726;2023-11-21T10:47:19;37.90;;;24.37;;
8803;SDS011;4438;50.890;4.726;2023-11-21T10:49:48;39.90;;;25.27;;
8803;SDS011;4438;50.890;4.726;2023-11-21T10:52:14;34.57;;;23.87;;
8803;SDS011;4438;50.890;4.726;2023-11-21T10:54:43;35.27;;;23.27;;
8803;SDS011;4438;50.890;4.726;2023-11-21T10:57:09;37.20;;;23.83;;
8803;SDS011;4438;50.890;4.726;2023-11-21T10:59:36;34.37;;;24.60;;
8803;SDS011;4438;50.890;4.726;2023-11-21T11:02:07;36.77;;;25.17;;
8803;SDS011;4438;50.890;4.726;2023-11-21T11:04:38;34.97;;;24.07;;
8803;SDS011;4438;50.890;4.726;2023-11-21T11:07:05;34.40;;;23.53;;
8803;SDS011;4438;50.890;4.726;2023-11-21T11:09:34;35.03;;;23.53;;
8803;SDS011;4438;50.890;4.726;2023-11-21T11:12:04;35.27;;;24.17;;
8803;SDS011;4438;50.890;4.726;2023-11-21T11:14:31;34.73;;;23.83;;
8803;SDS011;4438;50.890;4.726;2023-11-21T11:16:57;32.80;;;22.90;;
8803;SDS011;4438;50.890;4.726;2023-11-21T11:19:25;35.87;;;22.60;;
8803;SDS011;4438;50.890;4.726;2023-11-21T11:30:01;35.20;;;23.37;;
8803;SDS011;4438;50.890;4.726;2023-11-21T11:32:52;32.27;;;22.43;;
8803;SDS011;4438;50.890;4.726;2023-11-21T11:35:34;34.07;;;22.97;;
8803;SDS011;4438;50.890;4.726;2023-11-21T11:38:01;33.33;;;23.00;;
8803;SDS011;4438;50.890;4.726;2023-11-21T11:43:28;31.60;;;22.63;;
8803;SDS011;4438;50.890;4.726;2023-11-21T11:45:57;31.17;;;22.23;;
8803;SDS011;4438;50.890;4.726;2023-11-21T11:48:24;26.83;;;19.97;;
8803;SDS011;4438;50.890;4.726;2023-11-21T11:53:43;27.70;;;19.77;;
8803;SDS011;4438;50.890;4.726;2023-11-21T11:56:24;22.27;;;17.87;;
8803;SDS011;4438;50.890;4.726;2023-11-21T11:58:53;25.40;;;18.13;;
8803;SDS011;4438;50.890;4.726;2023-11-21T12:01:20;26.13;;;19.07;;
8803;SDS011;4438;50.890;4.726;2023-11-21T12:06:59;18.10;;;15.70;;
8803;SDS011;4438;50.890;4.726;2023-11-21T12:09:28;20.67;;;15.40;;
8803;SDS011;4438;50.890;4.726;2023-11-21T12:11:55;21.60;;;14.90;;
8803;SDS011;4438;50.890;4.726;2023-11-21T12:14:21;20.93;;;15.80;;
8803;SDS011;4438;50.890;4.726;2023-11-21T12:16:48;19.70;;;15.53;;
8803;SDS011;4438;50.890;4.726;2023-11-21T12:19:14;17.60;;;15.13;;
8803;SDS011;4438;50.890;4.726;2023-11-21T12:21:41;16.80;;;13.30;;
8803;SDS011;4438;50.890;4.726;2023-11-21T12:24:07;16.10;;;13.50;;
8803;SDS011;4438;50.890;4.726;2023-11-21T12:26:34;15.40;;;12.77;;
8803;SDS011;4438;50.890;4.726;2023-11-21T12:29:01;14.40;;;12.27;;
8803;SDS011;4438;50.890;4.726;2023-11-21T12:31:29;14.27;;;12.03;;
8803;SDS011;4438;50.890;4.726;2023-11-21T12:33:56;14.33;;;12.33;;
8803;SDS011;4438;50.890;4.726;2023-11-21T12:36:22;13.43;;;12.03;;
8803;SDS011;4438;50.890;4.726;2023-11-21T12:38:48;16.23;;;12.00;;
8803;SDS011;4438;50.890;4.726;2023-11-21T12:41:15;13.37;;;11.87;;
8803;SDS011;4438;50.890;4.726;2023-11-21T12:43:46;13.43;;;11.13;;
8803;SDS011;4438;50.890;4.726;2023-11-21T12:46:13;11.70;;;10.47;;
8803;SDS011;4438;50.890;4.726;2023-11-21T12:48:43;11.43;;;10.23;;
8803;SDS011;4438;50.890;4.726;2023-11-21T12:51:10;10.30;;;9.13;;
8803;SDS011;4438;50.890;4.726;2023-11-21T12:53:37;11.83;;;9.80;;
8803;SDS011;4438;50.890;4.726;2023-11-21T12:56:12;11.87;;;9.00;;
8803;SDS011;4438;50.890;4.726;2023-11-21T12:58:43;10.07;;;8.67;;
8803;SDS011;4438;50.890;4.726;2023-11-21T13:01:12;11.53;;;9.37;;
8803;SDS011;4438;50.890;4.726;2023-11-21T13:03:43;10.77;;;8.60;;
8803;SDS011;4438;50.890;4.726;2023-11-21T13:06:10;9.17;;;8.17;;
8803;SDS011;4438;50.890;4.726;2023-11-21T13:08:37;10.20;;;8.47;;
8803;SDS011;4438;50.890;4.726;2023-11-21T13:11:04;9.37;;;8.00;;
8803;SDS011;4438;50.890;4.726;2023-11-21T13:13:31;10.53;;;8.57;;
8803;SDS011;4438;50.890;4.726;2023-11-21T13:16:01;8.30;;;7.30;;
8803;SDS011;4438;50.890;4.726;2023-11-21T13:18:30;10.07;;;7.83;;
8803;SDS011;4438;50.890;4.726;2023-11-21T13:20:57;7.50;;;6.77;;
8803;SDS011;4438;50.890;4.726;2023-11-21T13:23:24;7.30;;;6.57;;
8803;SDS011;4438;50.890;4.726;2023-11-21T13:25:50;6.73;;;6.03;;
8803;SDS011;4438;50.890;4.726;2023-11-21T13:28:17;7.67;;;6.87;;
8803;SDS011;4438;50.890;4.726;2023-11-21T13:30:47;6.50;;;5.80;;
8803;SDS011;4438;50.890;4.726;2023-11-21T13:33:13;6.93;;;6.23;;
8803;SDS011;4438;50.890;4.726;2023-11-21T13:35:46;7.83;;;6.13;;
8803;SDS011;4438;50.890;4.726;2023-11-21T13:38:17;6.97;;;6.30;;
8803;SDS011;4438;50.890;4.726;2023-11-21T13:40:50;6.27;;;5.67;;
8803;SDS011;4438;50.890;4.726;2023-11-21T13:43:18;7.17;;;6.43;;
8803;SDS011;4438;50.890;4.726;2023-11-21T13:45:46;7.50;;;6.27;;
8803;SDS011;4438;50.890;4.726;2023-11-21T13:48:12;6.87;;;5.80;;
8803;SDS011;4438;50.890;4.726;2023-11-21T13:50:39;7.00;;;6.27;;
8803;SDS011;4438;50.890;4.726;2023-11-21T13:53:13;6.53;;;5.93;;
8803;SDS011;4438;50.890;4.726;2023-11-21T13:55:48;6.77;;;5.57;;
8803;SDS011;4438;50.890;4.726;2023-11-21T13:58:15;6.50;;;5.77;;
8803;SDS011;4438;50.890;4.726;2023-11-21T14:00:48;6.40;;;5.80;;
8803;SDS011;4438;50.890;4.726;2023-11-21T14:03:21;6.27;;;5.67;;
8803;SDS011;4438;50.890;4.726;2023-11-21T14:05:57;6.73;;;6.13;;
8803;SDS011;4438;50.890;4.726;2023-11-21T14:08:25;6.17;;;5.57;;
8803;SDS011;4438;50.890;4.726;2023-11-21T14:10:57;6.77;;;6.07;;
8803;SDS011;4438;50.890;4.726;2023-11-21T14:13:25;5.73;;;5.23;;
8803;SDS011;4438;50.890;4.726;2023-11-21T14:15:52;6.60;;;6.00;;
8803;SDS011;4438;50.890;4.726;2023-11-21T14:18:26;6.53;;;6.03;;
8803;SDS011;4438;50.890;4.726;2023-11-21T14:21:08;6.53;;;5.93;;
8803;SDS011;4438;50.890;4.726;2023-11-21T14:23:35;7.03;;;6.43;;
8803;SDS011;4438;50.890;4.726;2023-11-21T14:26:03;6.40;;;5.83;;
8803;SDS011;4438;50.890;4.726;2023-11-21T14:28:31;7.70;;;6.33;;
8803;SDS011;4438;50.890;4.726;2023-11-21T14:31:00;6.90;;;6.20;;
8803;SDS011;4438;50.890;4.726;2023-11-21T14:33:26;7.13;;;6.43;;
8803;SDS011;4438;50.890;4.726;2023-11-21T14:35:52;6.40;;;5.73;;
8803;SDS011;4438;50.890;4.726;2023-11-21T14:38:19;7.33;;;6.60;;
8803;SDS011;4438;50.890;4.726;2023-11-21T14:40:45;6.83;;;6.23;;
8803;SDS011;4438;50.890;4.726;2023-11-21T14:43:12;7.27;;;6.53;;
8803;SDS011;4438;50.890;4.726;2023-11-21T14:45:38;6.47;;;5.87;;
8803;SDS011;4438;50.890;4.726;2023-11-21T14:48:04;6.57;;;5.97;;
8803;SDS011;4438;50.890;4.726;2023-11-21T14:50:41;6.77;;;6.07;;
8803;SDS011;4438;50.890;4.726;2023-11-21T14:53:08;6.43;;;5.83;;
8803;SDS011;4438;50.890;4.726;2023-11-21T14:55:34;6.83;;;6.17;;
8803;SDS011;4438;50.890;4.726;2023-11-21T14:58:13;7.50;;;6.50;;
8803;SDS011;4438;50.890;4.726;2023-11-21T15:00:47;6.57;;;5.97;;
8803;SDS011;4438;50.890;4.726;2023-11-21T15:03:16;8.10;;;6.20;;
8803;SDS011;4438;50.890;4.726;2023-11-21T15:06:00;6.83;;;6.10;;
8803;SDS011;4438;50.890;4.726;2023-11-21T15:08:43;6.77;;;6.20;;